createdAt,value
2022-08-01T00:00:06.982Z,5.55
2022-08-01T00:02:39.426Z,4.53
2022-08-01T00:05:07.804Z,4.53
2022-08-01T00:07:37.944Z,4.82
2022-08-01T00:10:07.363Z,5.25
2022-08-01T00:12:34.165Z,4.80
2022-08-01T00:15:01.194Z,5.35
2022-08-01T00:17:27.871Z,5.35
2022-08-01T00:19:54.526Z,5.20
2022-08-01T00:22:21.163Z,5.50
2022-08-01T00:24:47.787Z,5.78
2022-08-01T00:27:14.395Z,5.60
2022-08-01T00:30:10.211Z,4.90
2022-08-01T00:32:27.696Z,5.43
2022-08-01T00:34:54.269Z,5.72
2022-08-01T00:37:20.852Z,5.43
2022-08-01T00:39:47.605Z,5.78
2022-08-01T00:42:14.821Z,5.30
2022-08-01T00:44:41.802Z,4.68
2022-08-01T00:47:08.899Z,4.80
2022-08-01T00:49:35.747Z,5.45
2022-08-01T00:52:05.499Z,4.28
2022-08-01T00:54:32.984Z,5.70
2022-08-01T00:56:59.953Z,4.47
2022-08-01T00:59:27.154Z,5.53
2022-08-01T01:01:54.107Z,4.03
2022-08-01T01:04:21.512Z,4.13
2022-08-01T01:06:52.733Z,5.45
2022-08-01T01:09:45.545Z,4.43
2022-08-01T01:12:38.501Z,3.90
2022-08-01T01:15:38.007Z,4.45
2022-08-01T01:18:08.027Z,4.65
2022-08-01T01:20:42.160Z,4.20
2022-08-01T01:23:35.124Z,5.00
2022-08-01T01:26:26.383Z,4.10
2022-08-01T01:29:05.332Z,4.90
2022-08-01T01:31:41.141Z,5.03
2022-08-01T01:34:10.434Z,5.25
2022-08-01T01:36:38.653Z,5.35
2022-08-01T01:39:05.371Z,5.13
2022-08-01T01:41:32.840Z,4.93
2022-08-01T01:44:01.305Z,4.60
2022-08-01T01:46:29.093Z,5.00
2022-08-01T01:48:57.764Z,4.47
2022-08-01T01:51:26.962Z,4.50
2022-08-01T01:53:56.149Z,4.35
2022-08-01T01:56:23.926Z,4.22
2022-08-01T01:58:56.341Z,4.40
2022-08-01T02:01:58.670Z,3.58
2022-08-01T02:04:16.179Z,3.85
2022-08-01T02:06:46.116Z,4.18
2022-08-01T02:09:13.566Z,4.50
2022-08-01T02:12:07.385Z,4.38
2022-08-01T02:14:30.312Z,3.35
2022-08-01T02:16:59.024Z,4.32
2022-08-01T02:19:25.939Z,4.00
2022-08-01T02:22:03.228Z,4.32
2022-08-01T02:24:43.342Z,3.92
2022-08-01T02:27:18.593Z,4.43
2022-08-01T02:29:56.732Z,4.13
2022-08-01T02:32:38.534Z,3.80
2022-08-01T02:35:08.653Z,4.80
2022-08-01T02:37:44.314Z,4.18
2022-08-01T02:40:14.534Z,3.97
2022-08-01T02:42:46.434Z,3.38
2022-08-01T02:45:14.948Z,4.28
2022-08-01T02:47:43.155Z,4.97
2022-08-01T02:50:13.197Z,4.07
2022-08-01T02:52:42.346Z,3.58
2022-08-01T02:55:10.054Z,3.92
2022-08-01T02:57:51.338Z,3.70
2022-08-01T03:00:23.616Z,4.55
2022-08-01T03:02:55.796Z,3.78
2022-08-01T03:05:23.621Z,3.47
2022-08-01T03:07:51.173Z,3.92
2022-08-01T03:10:18.382Z,3.33
2022-08-01T03:12:47.317Z,4.10
2022-08-01T03:15:16.451Z,3.65
2022-08-01T03:17:45.165Z,4.05
2022-08-01T03:20:14.787Z,3.55
2022-08-01T03:22:43.449Z,4.32
2022-08-01T03:25:11.607Z,3.75
2022-08-01T03:27:38.703Z,3.65
2022-08-01T03:30:07.305Z,4.25
2022-08-01T03:32:34.948Z,3.70
2022-08-01T03:35:01.716Z,3.88
2022-08-01T03:37:35.139Z,3.35
2022-08-01T03:40:06.777Z,3.65
2022-08-01T03:42:38.161Z,3.13
2022-08-01T03:45:16.546Z,2.75
2022-08-01T03:47:45.083Z,2.83
2022-08-01T03:50:14.658Z,2.80
2022-08-01T03:52:44.302Z,3.08
2022-08-01T03:55:12.594Z,2.60
2022-08-01T03:57:40.296Z,2.65
2022-08-01T04:00:09.652Z,2.60
2022-08-01T04:02:37.296Z,3.40
2022-08-01T04:05:05.382Z,2.70
2022-08-01T04:07:36.792Z,2.30
2022-08-01T04:10:04.406Z,2.45
2022-08-01T04:12:31.060Z,2.72
2022-08-01T04:14:57.653Z,2.55
2022-08-01T04:17:24.293Z,2.83
2022-08-01T04:19:51.733Z,2.60
2022-08-01T04:22:18.657Z,1.98
2022-08-01T04:24:56.511Z,2.05
2022-08-01T04:27:49.763Z,1.92
2022-08-01T04:30:21.829Z,2.28
2022-08-01T04:32:50.723Z,1.55
2022-08-01T04:35:23.276Z,1.65
2022-08-01T04:38:07.006Z,2.28
2022-08-01T04:40:36.719Z,1.80
2022-08-01T04:43:04.037Z,2.22
2022-08-01T04:45:31.631Z,1.60
2022-08-01T04:47:58.668Z,1.98
2022-08-01T04:50:25.410Z,1.95
2022-08-01T04:52:52.560Z,1.48
2022-08-01T04:55:19.257Z,1.17
2022-08-01T04:57:49.304Z,1.17
2022-08-01T05:00:17.480Z,0.90
2022-08-01T05:02:44.454Z,0.95
2022-08-01T05:05:11.408Z,1.33
2022-08-01T05:07:44.264Z,1.25
2022-08-01T05:10:12.351Z,1.25
2022-08-01T05:12:39.022Z,1.13
2022-08-01T05:15:10.594Z,1.13
2022-08-01T05:17:43.128Z,1.27
2022-08-01T05:20:10.886Z,1.10
2022-08-01T05:22:37.480Z,1.50
2022-08-01T05:25:05.864Z,1.20
2022-08-01T05:27:33.401Z,1.02
2022-08-01T05:30:00.498Z,1.65
2022-08-01T05:32:28.076Z,1.80
2022-08-01T05:34:55.595Z,1.33
2022-08-01T05:37:22.232Z,1.55
2022-08-01T05:39:48.884Z,1.98
2022-08-01T05:42:15.575Z,1.30
2022-08-01T05:44:42.246Z,1.95
2022-08-01T05:47:08.921Z,1.38
2022-08-01T05:49:35.550Z,1.70
2022-08-01T05:52:02.951Z,2.08
2022-08-01T05:54:29.977Z,2.20
2022-08-01T05:57:00.420Z,1.73
2022-08-01T05:59:27.447Z,1.50
2022-08-01T06:01:54.232Z,1.45
2022-08-01T06:04:21.054Z,2.08
2022-08-01T06:06:48.139Z,2.10
2022-08-01T06:09:14.958Z,1.52
2022-08-01T06:11:41.743Z,2.53
2022-08-01T06:14:08.533Z,1.67
2022-08-01T06:16:35.139Z,1.73
2022-08-01T06:19:01.868Z,2.00
2022-08-01T06:21:28.479Z,1.77
2022-08-01T06:23:55.092Z,2.22
2022-08-01T06:26:21.772Z,2.47
2022-08-01T06:28:48.327Z,2.30
2022-08-01T06:31:16.501Z,3.15
2022-08-01T06:33:43.096Z,2.65
2022-08-01T06:36:10.313Z,3.42
2022-08-01T06:38:37.184Z,2.72
2022-08-01T06:41:03.773Z,3.67
2022-08-01T06:43:30.618Z,4.40
2022-08-01T06:45:57.207Z,3.83
2022-08-01T06:48:23.900Z,4.00
2022-08-01T06:51:08.491Z,4.00
2022-08-01T06:53:39.152Z,3.20
2022-08-01T06:56:07.298Z,3.80
2022-08-01T06:58:35.528Z,4.07
2022-08-01T07:01:03.493Z,3.45
2022-08-01T07:03:53.255Z,4.13
2022-08-01T07:06:18.876Z,3.58
2022-08-01T07:08:45.452Z,3.30
2022-08-01T07:11:12.096Z,3.30
2022-08-01T07:13:44.384Z,3.28
2022-08-01T07:16:13.732Z,2.95
2022-08-01T07:18:40.707Z,3.03
2022-08-01T07:21:07.368Z,2.60
2022-08-01T07:23:45.989Z,2.47
2022-08-01T07:26:14.125Z,2.47
2022-08-01T07:28:44.062Z,2.80
2022-08-01T07:31:10.994Z,2.30
2022-08-01T07:33:47.988Z,2.33
2022-08-01T07:36:16.685Z,2.17
2022-08-01T07:38:43.400Z,2.33
2022-08-01T07:41:10.025Z,1.67
2022-08-01T07:43:36.938Z,1.73
2022-08-01T07:46:04.833Z,1.65
2022-08-01T07:48:31.820Z,1.63
2022-08-01T07:50:58.498Z,1.38
2022-08-01T07:53:25.120Z,2.30
2022-08-01T07:55:51.901Z,2.05
2022-08-01T07:58:18.711Z,1.58
2022-08-01T08:00:45.341Z,1.88
2022-08-01T08:03:11.944Z,2.30
2022-08-01T08:05:51.655Z,1.75
2022-08-01T08:08:26.466Z,2.35
2022-08-01T08:10:53.201Z,2.20
2022-08-01T08:13:19.864Z,1.77
2022-08-01T08:15:48.452Z,2.15
2022-08-01T08:18:18.188Z,2.28
2022-08-01T08:20:44.896Z,2.38
2022-08-01T08:23:42.848Z,1.55
2022-08-01T08:26:11.801Z,1.80
2022-08-01T08:28:38.726Z,2.30
2022-08-01T08:31:24.546Z,2.13
2022-08-01T08:33:53.362Z,2.00
2022-08-01T08:36:20.001Z,1.60
2022-08-01T08:38:46.578Z,1.30
2022-08-01T08:41:17.955Z,1.95
2022-08-01T08:43:47.387Z,1.63
2022-08-01T08:46:15.472Z,2.15
2022-08-01T08:48:42.780Z,1.63
2022-08-01T08:51:12.261Z,2.53
2022-08-01T08:53:44.697Z,2.25
2022-08-01T08:56:15.093Z,1.48
2022-08-01T08:58:46.151Z,1.67
2022-08-01T09:01:13.514Z,1.10
2022-08-01T09:03:41.664Z,1.55
2022-08-01T09:06:08.633Z,1.35
2022-08-01T09:08:36.384Z,1.40
2022-08-01T09:11:03.639Z,1.35
2022-08-01T09:13:30.573Z,1.10
2022-08-01T09:16:00.489Z,0.85
2022-08-01T09:18:41.478Z,1.58
2022-08-01T09:21:20.140Z,1.73
2022-08-01T09:23:54.142Z,1.65
2022-08-01T09:26:33.953Z,1.63
2022-08-01T09:29:05.813Z,1.27
2022-08-01T09:31:42.673Z,1.10
2022-08-01T09:34:15.029Z,1.65
2022-08-01T09:36:55.888Z,1.00
2022-08-01T09:39:27.813Z,1.23
2022-08-01T09:41:56.583Z,1.25
2022-08-01T09:44:55.004Z,1.77
2022-08-01T09:50:13.645Z,1.17
2022-08-01T09:52:41.157Z,1.40
2022-08-01T09:55:08.464Z,1.30
2022-08-01T09:57:35.311Z,1.02
2022-08-01T10:00:03.417Z,1.33
2022-08-01T10:02:34.839Z,0.93
2022-08-01T10:05:10.313Z,1.08
2022-08-01T10:07:55.665Z,1.42
2022-08-01T10:10:28.711Z,1.40
2022-08-01T10:12:57.770Z,1.60
2022-08-01T10:15:37.533Z,1.60
2022-08-01T10:18:26.041Z,1.35
2022-08-01T10:20:56.778Z,1.60
2022-08-01T10:23:40.572Z,1.95
2022-08-01T10:26:08.885Z,1.38
2022-08-01T10:28:39.658Z,1.33
2022-08-01T10:31:12.682Z,1.65
2022-08-01T10:33:51.114Z,1.70
2022-08-01T10:36:23.930Z,1.10
2022-08-01T10:38:53.315Z,1.67
2022-08-01T10:41:20.176Z,1.48
2022-08-01T10:43:47.244Z,1.63
2022-08-01T10:46:14.800Z,1.30
2022-08-01T10:49:01.171Z,1.30
2022-08-01T10:51:52.696Z,0.70
2022-08-01T10:54:15.674Z,1.20
2022-08-01T10:56:48.801Z,1.30
2022-08-01T10:59:50.498Z,1.08
2022-08-01T11:02:08.824Z,1.50
2022-08-01T11:04:41.250Z,0.90
2022-08-01T11:07:25.715Z,1.27
2022-08-01T11:10:23.698Z,1.30
2022-08-01T11:12:51.287Z,0.88
2022-08-01T11:15:29.178Z,1.15
2022-08-01T11:17:58.372Z,1.08
2022-08-01T11:20:33.749Z,0.90
2022-08-01T11:23:13.554Z,1.10
2022-08-01T11:26:06.247Z,0.65
2022-08-01T11:28:33.128Z,1.02
2022-08-01T11:31:11.758Z,1.38
2022-08-01T11:33:40.894Z,0.95
2022-08-01T11:36:14.761Z,1.77
2022-08-01T11:38:49.835Z,1.40
2022-08-01T11:41:38.664Z,1.20
2022-08-01T11:44:07.148Z,1.20
2022-08-01T11:47:08.967Z,0.88
2022-08-01T11:49:50.307Z,1.10
2022-08-01T11:52:36.976Z,0.95
2022-08-01T11:55:03.525Z,0.95
2022-08-01T11:57:35.607Z,0.65
2022-08-01T12:00:24.303Z,1.00
2022-08-01T12:02:59.719Z,0.93
2022-08-01T12:05:28.696Z,0.70
2022-08-01T12:07:58.656Z,1.00
2022-08-01T12:10:33.776Z,0.80
2022-08-01T12:13:02.447Z,1.15
2022-08-01T12:15:36.779Z,1.25
2022-08-01T12:18:06.903Z,0.85
2022-08-01T12:20:42.822Z,0.68
2022-08-01T12:23:21.281Z,0.90
2022-08-01T12:25:52.608Z,1.05
2022-08-01T12:28:19.550Z,0.70
2022-08-01T12:30:49.042Z,1.80
2022-08-01T12:33:19.900Z,0.70
2022-08-01T12:35:46.735Z,0.80
2022-08-01T12:38:19.539Z,0.70
2022-08-01T12:40:51.631Z,0.80
2022-08-01T12:43:29.626Z,0.60
2022-08-01T12:45:59.245Z,0.88
2022-08-01T12:48:26.924Z,0.50
2022-08-01T12:50:54.499Z,0.50
2022-08-01T12:53:22.401Z,0.73
2022-08-01T12:55:58.733Z,0.80
2022-08-01T12:58:35.008Z,0.90
2022-08-01T13:01:09.934Z,0.65
2022-08-01T13:03:36.883Z,0.50
2022-08-01T13:06:16.283Z,0.52
2022-08-01T13:08:44.084Z,1.05
2022-08-01T13:11:17.381Z,0.90
2022-08-01T13:13:49.525Z,0.50
2022-08-01T13:16:30.692Z,1.00
2022-08-01T13:19:05.683Z,0.60
2022-08-01T13:21:53.162Z,0.70
2022-08-01T13:24:32.976Z,0.63
2022-08-01T13:27:02.247Z,0.60
2022-08-01T13:29:44.307Z,0.70
2022-08-01T13:32:28.401Z,1.20
2022-08-01T13:35:09.445Z,0.77
2022-08-01T13:37:38.649Z,0.60
2022-08-01T13:40:07.142Z,1.15
2022-08-01T13:42:34.933Z,0.55
2022-08-01T13:45:02.973Z,0.65
2022-08-01T13:47:31.671Z,0.45
2022-08-01T13:50:01.484Z,0.93
2022-08-01T13:52:28.507Z,0.77
2022-08-01T13:54:55.110Z,0.80
2022-08-01T13:57:22.712Z,0.73
2022-08-01T13:59:49.389Z,1.23
2022-08-01T14:02:16.013Z,0.60
2022-08-01T14:04:43.042Z,1.13
2022-08-01T14:07:14.380Z,0.50
2022-08-01T14:09:45.065Z,1.85
2022-08-01T14:12:29.760Z,0.73
2022-08-01T14:14:57.196Z,0.57
2022-08-01T14:17:23.924Z,0.93
2022-08-01T14:19:50.817Z,0.70
2022-08-01T14:22:17.422Z,0.70
2022-08-01T14:24:44.028Z,0.60
2022-08-01T14:27:11.166Z,0.85
2022-08-01T14:30:02.891Z,0.90
2022-08-01T14:32:25.966Z,1.17
2022-08-01T14:34:56.555Z,1.02
2022-08-01T14:37:28.588Z,0.70
2022-08-01T14:39:57.299Z,0.90
2022-08-01T14:42:26.296Z,0.75
2022-08-01T14:44:52.950Z,0.60
2022-08-01T14:47:22.128Z,0.85
2022-08-01T14:49:49.916Z,0.90
2022-08-01T14:52:16.832Z,1.27
2022-08-01T14:54:43.486Z,0.85
2022-08-01T14:57:10.685Z,0.90
2022-08-01T14:59:37.321Z,0.80
2022-08-01T15:02:04.706Z,0.60
2022-08-01T15:04:31.609Z,1.05
2022-08-01T15:06:58.382Z,1.13
2022-08-01T15:09:24.982Z,0.85
2022-08-01T15:11:51.559Z,1.17
2022-08-01T15:14:37.059Z,1.35
2022-08-01T15:17:03.775Z,0.90
2022-08-01T15:19:30.409Z,1.17
2022-08-01T15:21:57.095Z,0.90
2022-08-01T15:24:23.725Z,0.85
2022-08-01T15:26:50.304Z,0.90
2022-08-01T15:29:18.159Z,1.30
2022-08-01T15:31:44.783Z,1.17
2022-08-01T15:34:11.768Z,0.85
2022-08-01T15:36:41.873Z,1.00
2022-08-01T15:39:09.605Z,1.10
2022-08-01T15:41:36.231Z,1.33
2022-08-01T15:44:03.221Z,1.10
2022-08-01T15:46:29.828Z,0.98
2022-08-01T15:48:56.520Z,1.10
2022-08-01T15:51:23.485Z,1.38
2022-08-01T15:53:50.095Z,1.33
2022-08-01T15:56:16.669Z,0.90
2022-08-01T15:58:43.271Z,0.77
2022-08-01T16:01:09.949Z,0.90
2022-08-01T16:03:36.542Z,0.98
2022-08-01T16:06:03.208Z,1.60
2022-08-01T16:08:29.944Z,1.45
2022-08-01T16:10:56.776Z,1.10
2022-08-01T16:13:23.386Z,1.67
2022-08-01T16:15:50.004Z,1.33
2022-08-01T16:18:16.837Z,0.80
2022-08-01T16:20:45.961Z,1.40
2022-08-01T16:23:14.173Z,1.13
2022-08-01T16:25:40.957Z,1.10
2022-08-01T16:28:09.194Z,0.93
2022-08-01T16:30:36.143Z,0.90
2022-08-01T16:33:07.704Z,1.20
2022-08-01T16:35:50.011Z,0.82
2022-08-01T16:38:19.265Z,0.95
2022-08-01T16:40:48.742Z,0.65
2022-08-01T16:43:15.797Z,1.05
2022-08-01T16:45:42.958Z,1.00
2022-08-01T16:48:12.293Z,1.08
2022-08-01T16:50:39.508Z,1.30
2022-08-01T16:53:06.144Z,0.90
2022-08-01T16:55:49.418Z,1.20
2022-08-01T16:58:19.633Z,1.00
2022-08-01T17:00:56.855Z,0.93
2022-08-01T17:03:46.735Z,0.80
2022-08-01T17:06:11.780Z,0.88
2022-08-01T17:08:46.423Z,0.73
2022-08-01T17:11:14.273Z,0.73
2022-08-01T17:13:40.964Z,1.13
2022-08-01T17:16:08.441Z,0.65
2022-08-01T17:18:35.446Z,0.60
2022-08-01T17:21:02.082Z,0.85
2022-08-01T17:23:28.794Z,0.85
2022-08-01T17:25:55.512Z,0.55
2022-08-01T17:28:23.045Z,0.95
2022-08-01T17:30:49.705Z,1.15
2022-08-01T17:33:16.615Z,0.88
2022-08-01T17:35:43.197Z,1.13
2022-08-01T17:38:09.876Z,0.95
2022-08-01T17:40:41.006Z,1.00
2022-08-01T17:43:08.269Z,0.70
2022-08-01T17:45:39.288Z,0.95
2022-08-01T17:48:18.399Z,0.75
2022-08-01T17:50:47.233Z,0.85
2022-08-01T17:53:15.624Z,0.70
2022-08-01T17:55:53.950Z,0.80
2022-08-01T17:58:49.032Z,1.10
2022-08-01T18:01:13.400Z,1.15
2022-08-01T18:03:41.242Z,0.70
2022-08-01T18:06:09.054Z,0.68
2022-08-01T18:08:35.938Z,0.93
2022-08-01T18:11:02.770Z,0.95
2022-08-01T18:13:29.825Z,0.70
2022-08-01T18:15:56.848Z,0.70
2022-08-01T18:18:33.416Z,0.90
2022-08-01T18:21:03.968Z,0.73
2022-08-01T18:23:33.338Z,0.85
2022-08-01T18:26:02.940Z,1.27
2022-08-01T18:28:35.395Z,1.27
2022-08-01T18:31:06.265Z,1.38
2022-08-01T18:33:36.038Z,1.08
2022-08-01T18:36:04.565Z,1.45
2022-08-01T18:38:32.908Z,0.98
2022-08-01T18:41:00.483Z,1.10
2022-08-01T18:43:27.332Z,0.80
2022-08-01T18:45:54.905Z,1.25
2022-08-01T18:48:21.506Z,1.25
2022-08-01T18:50:48.089Z,0.98
2022-08-01T18:53:14.705Z,0.80
2022-08-01T18:55:41.282Z,0.80
2022-08-01T18:58:07.914Z,1.33
2022-08-01T19:00:34.883Z,0.93
2022-08-01T19:03:01.557Z,1.08
2022-08-01T19:05:28.225Z,0.90
2022-08-01T19:08:06.452Z,1.23
2022-08-01T19:10:35.925Z,1.05
2022-08-01T19:13:03.496Z,0.68
2022-08-01T19:15:30.261Z,0.70
2022-08-01T19:17:57.173Z,0.90
2022-08-01T19:20:23.913Z,1.27
2022-08-01T19:22:50.715Z,0.60
2022-08-01T19:25:17.409Z,1.17
2022-08-01T19:27:49.861Z,0.90
2022-08-01T19:30:18.342Z,0.80
2022-08-01T19:32:47.328Z,0.82
2022-08-01T19:35:16.901Z,1.30
2022-08-01T19:37:50.812Z,0.82
2022-08-01T19:40:27.266Z,1.42
2022-08-01T19:42:57.205Z,1.00
2022-08-01T19:45:27.980Z,0.80
2022-08-01T19:47:57.123Z,0.75
2022-08-01T19:50:27.951Z,0.90
2022-08-01T19:52:56.262Z,1.08
2022-08-01T19:55:27.477Z,1.00
2022-08-01T19:58:17.260Z,0.65
2022-08-01T20:00:42.977Z,0.60
2022-08-01T20:03:10.267Z,0.85
2022-08-01T20:05:38.607Z,1.10
2022-08-01T20:08:06.701Z,0.88
2022-08-01T20:10:39.999Z,0.80
2022-08-01T20:13:09.522Z,0.98
2022-08-01T20:15:37.015Z,1.50
2022-08-01T20:18:03.711Z,0.65
2022-08-01T20:20:33.126Z,0.80
2022-08-01T20:23:02.918Z,1.20
2022-08-01T20:25:39.893Z,1.00
2022-08-01T20:28:12.228Z,1.08
2022-08-01T20:30:43.084Z,1.08
2022-08-01T20:33:11.637Z,0.82
2022-08-01T20:35:51.884Z,0.60
2022-08-01T20:38:27.526Z,0.75
2022-08-01T20:40:58.503Z,0.98
2022-08-01T20:43:28.340Z,0.80
2022-08-01T20:45:55.645Z,0.70
2022-08-01T20:48:25.279Z,0.90
2022-08-01T20:51:10.783Z,0.80
2022-08-01T20:53:41.735Z,0.93
2022-08-01T20:56:14.313Z,1.00
2022-08-01T20:58:58.661Z,0.70
2022-08-01T21:01:30.265Z,0.93
2022-08-01T21:04:08.684Z,0.70
2022-08-01T21:06:49.360Z,0.63
2022-08-01T21:09:22.791Z,0.63
2022-08-01T21:11:55.588Z,1.00
2022-08-01T21:14:31.885Z,0.50
2022-08-01T21:17:04.388Z,0.55
2022-08-01T21:19:34.316Z,1.02
2022-08-01T21:22:10.694Z,0.70
2022-08-01T21:25:01.255Z,0.75
2022-08-01T21:27:33.466Z,1.25
2022-08-01T21:30:04.032Z,0.75
2022-08-01T21:32:34.164Z,0.80
2022-08-01T21:35:02.478Z,0.60
2022-08-01T21:37:31.250Z,0.73
2022-08-01T21:39:59.501Z,1.08
2022-08-01T21:42:28.533Z,0.77
2022-08-01T21:45:00.985Z,1.10
2022-08-01T21:47:29.404Z,0.80
2022-08-01T21:50:01.033Z,0.50
2022-08-01T21:52:44.634Z,0.70
2022-08-01T21:55:35.352Z,0.50
2022-08-01T21:58:19.125Z,1.17
2022-08-01T22:00:53.327Z,0.98
2022-08-01T22:03:30.293Z,0.50
2022-08-01T22:06:00.150Z,0.60
2022-08-01T22:08:34.861Z,1.00
2022-08-01T22:11:07.310Z,1.05
2022-08-01T22:13:35.532Z,1.05
2022-08-01T22:16:04.520Z,1.15
2022-08-01T22:18:33.014Z,0.73
2022-08-01T22:21:01.494Z,0.80
2022-08-01T22:23:28.472Z,0.52
2022-08-01T22:25:55.953Z,0.70
2022-08-01T22:28:23.686Z,0.45
2022-08-01T22:30:51.998Z,0.75
2022-08-01T22:33:19.329Z,0.73
2022-08-01T22:35:50.890Z,0.60
2022-08-01T22:38:19.592Z,0.65
2022-08-01T22:41:12.794Z,0.77
2022-08-01T22:43:46.571Z,0.93
2022-08-01T22:46:18.761Z,0.40
2022-08-01T22:48:51.400Z,1.08
2022-08-01T22:51:33.179Z,0.70
2022-08-01T22:54:04.938Z,0.60
2022-08-01T22:56:37.137Z,0.60
2022-08-01T22:59:13.629Z,0.73
2022-08-01T23:01:47.477Z,0.50
2022-08-01T23:04:34.606Z,0.75
2022-08-01T23:07:05.467Z,0.85
2022-08-01T23:09:39.170Z,0.63
2022-08-01T23:12:22.285Z,0.80
2022-08-01T23:14:52.666Z,1.05
2022-08-01T23:17:27.470Z,0.60
2022-08-01T23:19:57.355Z,0.98
2022-08-01T23:22:25.880Z,0.73
2022-08-01T23:25:03.351Z,0.90
2022-08-01T23:27:51.903Z,0.38
2022-08-01T23:30:29.435Z,0.52
2022-08-01T23:32:56.728Z,1.00
2022-08-01T23:35:24.163Z,0.50
2022-08-01T23:37:51.423Z,0.60
2022-08-01T23:40:19.081Z,0.90
2022-08-01T23:42:45.871Z,1.05
2022-08-01T23:45:12.543Z,0.60
2022-08-01T23:47:39.300Z,0.60
2022-08-01T23:50:07.778Z,0.55
2022-08-01T23:52:34.761Z,0.60
2022-08-01T23:55:11.539Z,0.75
2022-08-01T23:57:42.080Z,0.40
